PSM weather

Portsmouth International at Pease Airport
Portsmouth, New Hampshire, United States

Public forecast

Using degrees Fahrenheit for public forecast. Weather courtesy of forecast.io.

Current aviation weather report (METAR) for Portsmouth International at Pease Airport

Retrieved 2019/12/13 06:56 UTC (32 minutes ago):

KPSM 130656Z 00000KT 10SM FEW140 BKN200 M05/M10 A3064 RMK AO2A SLP380 T10481098

Aviation forecast (TAF) for Portsmouth International at Pease Airport

Retrieved 2019/12/13 06:22 UTC (1 hour ago):

TAF KPSM 130520Z 1306/1406 17003KT P6SM BKN150 FM131800 16006KT P6SM OVC025 FM132100 10003KT 4SM BR OVC007